WAT378 LMML-LIRN
Flight info
| Callsign | WAT378 |
|---|---|
| Flight time | 1h 0m |
| Altitude | 36000 |
| Route | GZO P623 OLLEK DCT ARFOL DCT ROMSU DCT UXUTA DCT DIRED DCT NAXES T92 SOR |
| Aircraft | B738/M-SDE2E3FGHIRWXY/LB1 |
Departure
| Time | 2026-04-27 16:17 |
|---|---|
| Airport | Malta International Airport (LMML) |
Arrival
| Time | 2026-04-27 17:18 |
|---|---|
| Airport | Naples International Airport (LIRN) |
| Time | Latitude | Longitude | Altitude | Speed | Heading |
|---|---|---|---|---|---|
| 2026-04-27 15:40 | 35.84907 | 14.49397 | 252 ft | 0 kts | 360° |
| 2026-04-27 16:03 | 35.84904 | 14.49397 | 252 ft | 2 kts | 360° |
| 2026-04-27 16:03 | 35.84890 | 14.49397 | 252 ft | 2 kts | 360° |
| 2026-04-27 16:03 | 35.84875 | 14.49397 | 252 ft | 2 kts | 360° |
| 2026-04-27 16:03 | 35.84860 | 14.49397 | 252 ft | 2 kts | 360° |
| 2026-04-27 16:04 | 35.84848 | 14.49397 | 252 ft | 0 kts | 360° |
| 2026-04-27 16:04 | 35.84835 | 14.49398 | 252 ft | 2 kts | 341° |
| 2026-04-27 16:04 | 35.84822 | 14.49407 | 252 ft | 2 kts | 320° |
| 2026-04-27 16:04 | 35.84817 | 14.49412 | 252 ft | 1 kts | 310° |
| 2026-04-27 16:05 | 35.84815 | 14.49415 | 252 ft | 0 kts | 313° |
| 2026-04-27 16:08 | 35.84823 | 14.49405 | 252 ft | 3 kts | 315° |
| 2026-04-27 16:08 | 35.84849 | 14.49374 | 252 ft | 7 kts | 315° |
| 2026-04-27 16:08 | 35.84894 | 14.49320 | 253 ft | 10 kts | 315° |
| 2026-04-27 16:09 | 35.84935 | 14.49260 | 254 ft | 8 kts | 291° |
| 2026-04-27 16:09 | 35.84929 | 14.49181 | 254 ft | 0 kts | 225° |
| 2026-04-27 16:09 | 35.84922 | 14.49173 | 255 ft | 6 kts | 225° |
| 2026-04-27 16:10 | 35.84981 | 14.48974 | 257 ft | 21 kts | 314° |
| 2026-04-27 16:10 | 35.85171 | 14.48740 | 261 ft | 17 kts | 314° |
| 2026-04-27 16:11 | 35.85252 | 14.48637 | 263 ft | 16 kts | 314° |
| 2026-04-27 16:11 | 35.85404 | 14.48452 | 264 ft | 14 kts | 315° |
| 2026-04-27 16:12 | 35.85540 | 14.48284 | 264 ft | 11 kts | 314° |
| 2026-04-27 16:12 | 35.85561 | 14.48258 | 264 ft | 0 kts | 317° |
| 2026-04-27 16:13 | 35.85569 | 14.48249 | 264 ft | 3 kts | 317° |
| 2026-04-27 16:13 | 35.85588 | 14.48229 | 264 ft | 3 kts | 326° |
| 2026-04-27 16:14 | 35.85661 | 14.48157 | 263 ft | 6 kts | 270° |
| 2026-04-27 16:14 | 35.85661 | 14.48044 | 264 ft | 6 kts | 269° |
| 2026-04-27 16:15 | 35.85670 | 14.47953 | 264 ft | 4 kts | 237° |
| 2026-04-27 16:15 | 35.85632 | 14.47918 | 265 ft | 4 kts | 191° |
| 2026-04-27 16:16 | 35.85575 | 14.47968 | 264 ft | 0 kts | 132° |
| 2026-04-27 16:16 | 35.85247 | 14.48375 | 264 ft | 93 kts | 134° |
| 2026-04-27 16:17 | 35.83878 | 14.50083 | 570 ft | 161 kts | 135° |
| 2026-04-27 16:17 | 35.82007 | 14.51626 | 1549 ft | 179 kts | 179° |
| 2026-04-27 16:18 | 35.79926 | 14.49762 | 2307 ft | 213 kts | 238° |
| 2026-04-27 16:18 | 35.78336 | 14.46365 | 3162 ft | 245 kts | 239° |
| 2026-04-27 16:19 | 35.77437 | 14.44523 | 3637 ft | 258 kts | 239° |
| 2026-04-27 16:19 | 35.76499 | 14.42577 | 4254 ft | 265 kts | 243° |
| 2026-04-27 16:20 | 35.76582 | 14.36055 | 6423 ft | 266 kts | 292° |
| 2026-04-27 16:20 | 35.77496 | 14.34079 | 7203 ft | 267 kts | 309° |
| 2026-04-27 16:20 | 35.80562 | 14.31557 | 8718 ft | 272 kts | 334° |
| 2026-04-27 16:21 | 35.82314 | 14.30706 | 9463 ft | 275 kts | 336° |
| 2026-04-27 16:21 | 35.87865 | 14.28109 | 11198 ft | 303 kts | 335° |
| 2026-04-27 16:22 | 35.89883 | 14.27145 | 11654 ft | 318 kts | 336° |
| 2026-04-27 16:22 | 35.94120 | 14.25120 | 12922 ft | 334 kts | 335° |
| 2026-04-27 16:22 | 35.96305 | 14.24078 | 13691 ft | 337 kts | 335° |
| 2026-04-27 16:23 | 35.98488 | 14.23039 | 14475 ft | 342 kts | 336° |
| 2026-04-27 16:23 | 36.03241 | 14.21933 | 15911 ft | 362 kts | 0° |
| 2026-04-27 16:23 | 36.05747 | 14.22606 | 16590 ft | 375 kts | 15° |
| 2026-04-27 16:24 | 36.08107 | 14.24058 | 17337 ft | 384 kts | 26° |
| 2026-04-27 16:24 | 36.12635 | 14.27667 | 18698 ft | 393 kts | 30° |
| 2026-04-27 16:25 | 36.17230 | 14.31502 | 19957 ft | 404 kts | 30° |
| 2026-04-27 16:25 | 36.21932 | 14.35403 | 21239 ft | 411 kts | 30° |
| 2026-04-27 16:26 | 36.26701 | 14.39344 | 22416 ft | 419 kts | 29° |
| 2026-04-27 16:26 | 36.31586 | 14.43377 | 23574 ft | 427 kts | 29° |
| 2026-04-27 16:27 | 36.36589 | 14.47510 | 24670 ft | 435 kts | 29° |
| 2026-04-27 16:27 | 36.44214 | 14.53821 | 26277 ft | 444 kts | 29° |
| 2026-04-27 16:28 | 36.49520 | 14.57765 | 27227 ft | 447 kts | 20° |
| 2026-04-27 16:28 | 36.55389 | 14.60102 | 28210 ft | 444 kts | 8° |
| 2026-04-27 16:29 | 36.64558 | 14.62219 | 29602 ft | 451 kts | 5° |
| 2026-04-27 16:30 | 36.70807 | 14.63544 | 30569 ft | 455 kts | 5° |
| 2026-04-27 16:30 | 36.76990 | 14.64912 | 31860 ft | 449 kts | 5° |
| 2026-04-27 16:31 | 36.86166 | 14.66996 | 33419 ft | 445 kts | 6° |
| 2026-04-27 16:31 | 36.92338 | 14.68393 | 34395 ft | 442 kts | 6° |
| 2026-04-27 16:32 | 36.98379 | 14.69760 | 35030 ft | 442 kts | 6° |
| 2026-04-27 16:32 | 37.01426 | 14.70451 | 35319 ft | 442 kts | 6° |
| 2026-04-27 16:33 | 37.07466 | 14.71827 | 35921 ft | 441 kts | 6° |
| 2026-04-27 16:33 | 37.10494 | 14.72517 | 36099 ft | 442 kts | 6° |
| 2026-04-27 16:33 | 37.16539 | 14.73895 | 36112 ft | 441 kts | 6° |
| 2026-04-27 16:34 | 37.22608 | 14.75111 | 36114 ft | 437 kts | 1° |
| 2026-04-27 16:34 | 37.28653 | 14.75267 | 36116 ft | 433 kts | 353° |
| 2026-04-27 16:35 | 37.34626 | 14.74746 | 36103 ft | 431 kts | 351° |
| 2026-04-27 16:36 | 37.43646 | 14.73778 | 36104 ft | 431 kts | 351° |
| 2026-04-27 16:36 | 37.49602 | 14.73176 | 36097 ft | 432 kts | 352° |
| 2026-04-27 16:37 | 37.55589 | 14.72598 | 36104 ft | 431 kts | 352° |
| 2026-04-27 16:37 | 37.61595 | 14.72029 | 36113 ft | 431 kts | 352° |
| 2026-04-27 16:38 | 37.67565 | 14.71467 | 36130 ft | 432 kts | 352° |
| 2026-04-27 16:38 | 37.73574 | 14.70902 | 36136 ft | 431 kts | 352° |
| 2026-04-27 16:39 | 37.79583 | 14.70335 | 36145 ft | 431 kts | 352° |
| 2026-04-27 16:39 | 37.85532 | 14.69774 | 36154 ft | 432 kts | 353° |
| 2026-04-27 16:40 | 37.91555 | 14.69204 | 36152 ft | 432 kts | 353° |
| 2026-04-27 16:40 | 37.97541 | 14.68620 | 36157 ft | 432 kts | 352° |
| 2026-04-27 16:41 | 38.03522 | 14.67992 | 36154 ft | 432 kts | 352° |
| 2026-04-27 16:41 | 38.09524 | 14.67352 | 36134 ft | 431 kts | 352° |
| 2026-04-27 16:42 | 38.15468 | 14.66721 | 36132 ft | 431 kts | 352° |
| 2026-04-27 16:42 | 38.21459 | 14.66087 | 36117 ft | 431 kts | 353° |
| 2026-04-27 16:43 | 38.27445 | 14.65454 | 36101 ft | 431 kts | 353° |
| 2026-04-27 16:43 | 38.33388 | 14.64826 | 36101 ft | 431 kts | 352° |
| 2026-04-27 16:44 | 38.39391 | 14.64191 | 36099 ft | 431 kts | 353° |
| 2026-04-27 16:44 | 38.45332 | 14.63562 | 36099 ft | 430 kts | 353° |
| 2026-04-27 16:45 | 38.51288 | 14.62928 | 36097 ft | 431 kts | 353° |
| 2026-04-27 16:45 | 38.57255 | 14.62293 | 36097 ft | 430 kts | 353° |
| 2026-04-27 16:46 | 38.63263 | 14.61653 | 36096 ft | 430 kts | 353° |
| 2026-04-27 16:46 | 38.69223 | 14.61018 | 36092 ft | 429 kts | 353° |
| 2026-04-27 16:47 | 38.75142 | 14.60385 | 36094 ft | 430 kts | 353° |
| 2026-04-27 16:47 | 38.81102 | 14.59747 | 36093 ft | 430 kts | 353° |
| 2026-04-27 16:48 | 38.87070 | 14.59107 | 36091 ft | 430 kts | 353° |
| 2026-04-27 16:48 | 38.93059 | 14.58464 | 36091 ft | 430 kts | 353° |
| 2026-04-27 16:49 | 39.01976 | 14.57504 | 36090 ft | 429 kts | 353° |
| 2026-04-27 16:49 | 39.07934 | 14.56860 | 36093 ft | 430 kts | 353° |
| 2026-04-27 16:50 | 39.13905 | 14.56215 | 36093 ft | 429 kts | 353° |
| 2026-04-27 16:50 | 39.19836 | 14.55573 | 36090 ft | 430 kts | 353° |
| 2026-04-27 16:51 | 39.25795 | 14.54926 | 36092 ft | 430 kts | 353° |
| 2026-04-27 16:51 | 39.31790 | 14.54275 | 36091 ft | 430 kts | 353° |
| 2026-04-27 16:52 | 39.37767 | 14.53625 | 36093 ft | 429 kts | 353° |
| 2026-04-27 16:52 | 39.43709 | 14.52978 | 36092 ft | 429 kts | 353° |
| 2026-04-27 16:53 | 39.49645 | 14.52329 | 36090 ft | 430 kts | 353° |
| 2026-04-27 16:53 | 39.55618 | 14.51676 | 36081 ft | 430 kts | 353° |
| 2026-04-27 16:54 | 39.58609 | 14.51312 | 35616 ft | 433 kts | 352° |
| 2026-04-27 16:54 | 39.61572 | 14.50849 | 34973 ft | 435 kts | 351° |
| 2026-04-27 16:54 | 39.64594 | 14.50313 | 34190 ft | 438 kts | 350° |
| 2026-04-27 16:54 | 39.67584 | 14.49758 | 33390 ft | 439 kts | 350° |
| 2026-04-27 16:55 | 39.70624 | 14.49190 | 32737 ft | 436 kts | 351° |
| 2026-04-27 16:55 | 39.73591 | 14.48640 | 32307 ft | 429 kts | 351° |
| 2026-04-27 16:55 | 39.76518 | 14.48104 | 31833 ft | 423 kts | 351° |
| 2026-04-27 16:55 | 39.79401 | 14.47582 | 31367 ft | 417 kts | 351° |
| 2026-04-27 16:56 | 39.82256 | 14.47068 | 30898 ft | 412 kts | 351° |
| 2026-04-27 16:56 | 39.85062 | 14.46566 | 30419 ft | 407 kts | 351° |
| 2026-04-27 16:56 | 39.87881 | 14.46064 | 29935 ft | 402 kts | 351° |
| 2026-04-27 16:56 | 39.90616 | 14.45578 | 29415 ft | 399 kts | 351° |
| 2026-04-27 16:57 | 39.93362 | 14.45091 | 28930 ft | 395 kts | 351° |
| 2026-04-27 16:57 | 39.96067 | 14.44613 | 28455 ft | 390 kts | 351° |
| 2026-04-27 16:57 | 39.98719 | 14.44143 | 27996 ft | 386 kts | 351° |
| 2026-04-27 16:57 | 40.01360 | 14.43675 | 27536 ft | 381 kts | 351° |
| 2026-04-27 16:58 | 40.03979 | 14.43210 | 27074 ft | 377 kts | 351° |
| 2026-04-27 16:58 | 40.06561 | 14.42752 | 26615 ft | 373 kts | 351° |
| 2026-04-27 16:58 | 40.09110 | 14.42299 | 26164 ft | 369 kts | 351° |
| 2026-04-27 16:58 | 40.11639 | 14.41850 | 25711 ft | 365 kts | 351° |
| 2026-04-27 16:59 | 40.14132 | 14.41407 | 25265 ft | 361 kts | 351° |
| 2026-04-27 16:59 | 40.16615 | 14.40964 | 24818 ft | 358 kts | 351° |
| 2026-04-27 16:59 | 40.19069 | 14.40527 | 24373 ft | 354 kts | 351° |
| 2026-04-27 16:59 | 40.21481 | 14.40098 | 23931 ft | 350 kts | 351° |
| 2026-04-27 17:00 | 40.24733 | 14.39518 | 23341 ft | 359 kts | 351° |
| 2026-04-27 17:00 | 40.28941 | 14.38763 | 22552 ft | 367 kts | 351° |
| 2026-04-27 17:00 | 40.31430 | 14.38320 | 22091 ft | 362 kts | 351° |
| 2026-04-27 17:01 | 40.33910 | 14.37878 | 21632 ft | 358 kts | 351° |
| 2026-04-27 17:01 | 40.36348 | 14.37442 | 21177 ft | 353 kts | 351° |
| 2026-04-27 17:01 | 40.38772 | 14.37008 | 20720 ft | 349 kts | 351° |
| 2026-04-27 17:01 | 40.41173 | 14.36578 | 20264 ft | 345 kts | 351° |
| 2026-04-27 17:02 | 40.43523 | 14.36157 | 19820 ft | 342 kts | 351° |
| 2026-04-27 17:02 | 40.45880 | 14.35734 | 19361 ft | 338 kts | 351° |
| 2026-04-27 17:02 | 40.48194 | 14.35318 | 18929 ft | 334 kts | 351° |
| 2026-04-27 17:02 | 40.50457 | 14.34910 | 18515 ft | 330 kts | 351° |
| 2026-04-27 17:03 | 40.52720 | 14.34503 | 18079 ft | 327 kts | 351° |
| 2026-04-27 17:03 | 40.54959 | 14.34142 | 17636 ft | 324 kts | 354° |
| 2026-04-27 17:03 | 40.57217 | 14.34273 | 17199 ft | 324 kts | 11° |
| 2026-04-27 17:03 | 40.59273 | 14.35405 | 16941 ft | 322 kts | 31° |
| 2026-04-27 17:04 | 40.60979 | 14.37326 | 16522 ft | 323 kts | 44° |
| 2026-04-27 17:04 | 40.62508 | 14.39492 | 16099 ft | 332 kts | 45° |
| 2026-04-27 17:04 | 40.64090 | 14.41769 | 15621 ft | 340 kts | 45° |
| 2026-04-27 17:04 | 40.65668 | 14.44048 | 15160 ft | 338 kts | 45° |
| 2026-04-27 17:05 | 40.67251 | 14.46326 | 14710 ft | 335 kts | 45° |
| 2026-04-27 17:05 | 40.68824 | 14.48583 | 14251 ft | 332 kts | 45° |
| 2026-04-27 17:05 | 40.70364 | 14.50813 | 13776 ft | 330 kts | 46° |
| 2026-04-27 17:05 | 40.71375 | 14.52313 | 13481 ft | 327 kts | 47° |
| 2026-04-27 17:06 | 40.73363 | 14.55308 | 12929 ft | 322 kts | 47° |
| 2026-04-27 17:06 | 40.74813 | 14.57504 | 12715 ft | 312 kts | 47° |
| 2026-04-27 17:06 | 40.76201 | 14.59603 | 12619 ft | 299 kts | 47° |
| 2026-04-27 17:06 | 40.77536 | 14.61613 | 12523 ft | 287 kts | 46° |
| 2026-04-27 17:07 | 40.78953 | 14.63381 | 12417 ft | 274 kts | 34° |
| 2026-04-27 17:07 | 40.80647 | 14.64371 | 12259 ft | 263 kts | 6° |
| 2026-04-27 17:07 | 40.82438 | 14.64195 | 11945 ft | 259 kts | 341° |
| 2026-04-27 17:07 | 40.84045 | 14.63144 | 11622 ft | 257 kts | 327° |
| 2026-04-27 17:08 | 40.85547 | 14.61883 | 11301 ft | 255 kts | 327° |
| 2026-04-27 17:08 | 40.87061 | 14.60693 | 10961 ft | 255 kts | 334° |
| 2026-04-27 17:08 | 40.88746 | 14.60010 | 10629 ft | 253 kts | 357° |
| 2026-04-27 17:08 | 40.90447 | 14.60391 | 10340 ft | 251 kts | 23° |
| 2026-04-27 17:09 | 40.91915 | 14.61621 | 10037 ft | 249 kts | 40° |
| 2026-04-27 17:09 | 40.93055 | 14.63341 | 9725 ft | 248 kts | 56° |
| 2026-04-27 17:09 | 40.93944 | 14.65267 | 9416 ft | 247 kts | 60° |
| 2026-04-27 17:09 | 40.94809 | 14.67251 | 9117 ft | 246 kts | 59° |
| 2026-04-27 17:10 | 40.95694 | 14.69163 | 8781 ft | 247 kts | 54° |
| 2026-04-27 17:10 | 40.96907 | 14.70741 | 8392 ft | 247 kts | 28° |
| 2026-04-27 17:10 | 40.98555 | 14.71329 | 8098 ft | 244 kts | 359° |
| 2026-04-27 17:10 | 41.00213 | 14.70983 | 7801 ft | 242 kts | 342° |
| 2026-04-27 17:11 | 41.01733 | 14.70063 | 7498 ft | 241 kts | 328° |
| 2026-04-27 17:11 | 41.03370 | 14.66384 | 6566 ft | 244 kts | 266° |
| 2026-04-27 17:11 | 41.02982 | 14.64343 | 6685 ft | 218 kts | 249° |
| 2026-04-27 17:12 | 41.01846 | 14.60829 | 6506 ft | 210 kts | 247° |
| 2026-04-27 17:12 | 41.01271 | 14.59052 | 6184 ft | 210 kts | 248° |
| 2026-04-27 17:12 | 41.00712 | 14.57279 | 5866 ft | 209 kts | 248° |
| 2026-04-27 17:13 | 41.00167 | 14.55492 | 5548 ft | 209 kts | 249° |
| 2026-04-27 17:13 | 40.99640 | 14.53697 | 5227 ft | 208 kts | 250° |
| 2026-04-27 17:13 | 40.99149 | 14.51926 | 4884 ft | 205 kts | 250° |
| 2026-04-27 17:13 | 40.98568 | 14.50247 | 4491 ft | 201 kts | 242° |
| 2026-04-27 17:14 | 40.97847 | 14.48672 | 4097 ft | 201 kts | 238° |
| 2026-04-27 17:14 | 40.97093 | 14.47117 | 3705 ft | 200 kts | 239° |
| 2026-04-27 17:14 | 40.96368 | 14.45574 | 3306 ft | 199 kts | 240° |
| 2026-04-27 17:14 | 40.95643 | 14.44017 | 2900 ft | 194 kts | 239° |
| 2026-04-27 17:15 | 40.94955 | 14.42554 | 2609 ft | 183 kts | 239° |
| 2026-04-27 17:15 | 40.94297 | 14.41159 | 2345 ft | 177 kts | 239° |
| 2026-04-27 17:15 | 40.93644 | 14.39767 | 2085 ft | 175 kts | 239° |
| 2026-04-27 17:15 | 40.93023 | 14.38448 | 1831 ft | 164 kts | 239° |
| 2026-04-27 17:16 | 40.92442 | 14.37215 | 1624 ft | 151 kts | 239° |
| 2026-04-27 17:16 | 40.91893 | 14.36048 | 1370 ft | 150 kts | 239° |
| 2026-04-27 17:16 | 40.91342 | 14.34879 | 1152 ft | 148 kts | 238° |
| 2026-04-27 17:16 | 40.90803 | 14.33726 | 935 ft | 148 kts | 237° |
| 2026-04-27 17:17 | 40.90244 | 14.32550 | 741 ft | 160 kts | 236° |
| 2026-04-27 17:17 | 40.89663 | 14.31331 | 523 ft | 153 kts | 237° |
| 2026-04-27 17:17 | 40.89123 | 14.30175 | 256 ft | 145 kts | 236° |
| 2026-04-27 17:18 | 40.88440 | 14.28734 | 273 ft | 57 kts | 238° |
| 2026-04-27 17:18 | 40.88239 | 14.28430 | 281 ft | 32 kts | 211° |
| 2026-04-27 17:18 | 40.88083 | 14.28321 | 286 ft | 10 kts | 208° |
| 2026-04-27 17:18 | 40.88062 | 14.28253 | 286 ft | 8 kts | 261° |
| 2026-04-27 17:19 | 40.88034 | 14.28161 | 288 ft | 12 kts | 234° |
| 2026-04-27 17:19 | 40.87964 | 14.28138 | 289 ft | 12 kts | 165° |
| 2026-04-27 17:19 | 40.87905 | 14.28161 | 290 ft | 3 kts | 164° |
| 2026-04-27 17:19 | 40.87893 | 14.28165 | 290 ft | 0 kts | 163° |